sensor_id;sensor_type;location;lat;lon;timestamp;temperature;humidity
8664;DHT22;4369;47.842;13.096;2024-01-15T00:00:15;-1.10;99.90
8664;DHT22;4369;47.842;13.096;2024-01-15T00:02:44;-1.10;99.90
8664;DHT22;4369;47.842;13.096;2024-01-15T00:05:11;-1.00;99.90
8664;DHT22;4369;47.842;13.096;2024-01-15T00:07:38;-0.90;99.90
8664;DHT22;4369;47.842;13.096;2024-01-15T00:10:05;-0.90;99.90
8664;DHT22;4369;47.842;13.096;2024-01-15T00:12:32;-0.80;99.90
8664;DHT22;4369;47.842;13.096;2024-01-15T00:14:59;-0.80;99.90
8664;DHT22;4369;47.842;13.096;2024-01-15T00:17:26;-0.80;99.90
8664;DHT22;4369;47.842;13.096;2024-01-15T00:19:55;-0.60;99.90
8664;DHT22;4369;47.842;13.096;2024-01-15T00:22:23;-0.60;99.90
8664;DHT22;4369;47.842;13.096;2024-01-15T00:24:50;-0.50;99.90
8664;DHT22;4369;47.842;13.096;2024-01-15T00:27:17;-0.40;99.90
8664;DHT22;4369;47.842;13.096;2024-01-15T00:29:44;-0.40;99.90
8664;DHT22;4369;47.842;13.096;2024-01-15T00:32:11;-0.40;99.90
8664;DHT22;4369;47.842;13.096;2024-01-15T00:34:38;-0.60;99.90
8664;DHT22;4369;47.842;13.096;2024-01-15T00:37:06;-0.50;99.90
8664;DHT22;4369;47.842;13.096;2024-01-15T00:39:33;-0.60;99.90
8664;DHT22;4369;47.842;13.096;2024-01-15T00:42:00;-0.70;99.60
8664;DHT22;4369;47.842;13.096;2024-01-15T00:44:27;-0.80;99.90
8664;DHT22;4369;47.842;13.096;2024-01-15T00:46:54;-0.80;97.00
8664;DHT22;4369;47.842;13.096;2024-01-15T00:49:21;-0.70;99.90
8664;DHT22;4369;47.842;13.096;2024-01-15T00:51:48;-0.70;99.90
8664;DHT22;4369;47.842;13.096;2024-01-15T00:54:16;-0.70;99.90
8664;DHT22;4369;47.842;13.096;2024-01-15T00:56:43;-0.70;99.90
8664;DHT22;4369;47.842;13.096;2024-01-15T00:59:10;-0.70;97.30
8664;DHT22;4369;47.842;13.096;2024-01-15T01:01:40;-0.80;99.80
8664;DHT22;4369;47.842;13.096;2024-01-15T01:04:08;-0.80;99.70
8664;DHT22;4369;47.842;13.096;2024-01-15T01:06:35;-0.90;96.40
8664;DHT22;4369;47.842;13.096;2024-01-15T01:09:02;-0.90;99.40
8664;DHT22;4369;47.842;13.096;2024-01-15T01:11:31;-0.80;99.90
8664;DHT22;4369;47.842;13.096;2024-01-15T01:13:58;-0.80;99.90
8664;DHT22;4369;47.842;13.096;2024-01-15T01:16:26;-0.70;99.90
8664;DHT22;4369;47.842;13.096;2024-01-15T01:18:53;-0.60;99.90
8664;DHT22;4369;47.842;13.096;2024-01-15T01:21:20;-0.60;99.90
8664;DHT22;4369;47.842;13.096;2024-01-15T01:23:47;-0.60;99.90
8664;DHT22;4369;47.842;13.096;2024-01-15T01:26:15;-0.50;99.90
8664;DHT22;4369;47.842;13.096;2024-01-15T01:28:44;-0.40;99.90
8664;DHT22;4369;47.842;13.096;2024-01-15T01:31:11;-0.40;99.90
8664;DHT22;4369;47.842;13.096;2024-01-15T01:33:38;-0.40;99.90
8664;DHT22;4369;47.842;13.096;2024-01-15T01:36:07;-0.40;99.90
8664;DHT22;4369;47.842;13.096;2024-01-15T01:38:35;-0.40;99.90
8664;DHT22;4369;47.842;13.096;2024-01-15T01:41:02;-0.20;99.90
8664;DHT22;4369;47.842;13.096;2024-01-15T01:43:29;-0.10;99.90
8664;DHT22;4369;47.842;13.096;2024-01-15T01:45:57;0.00;99.90
8664;DHT22;4369;47.842;13.096;2024-01-15T01:48:25;0.00;99.90
8664;DHT22;4369;47.842;13.096;2024-01-15T01:50:53;0.00;99.90
8664;DHT22;4369;47.842;13.096;2024-01-15T01:53:20;0.10;99.90
8664;DHT22;4369;47.842;13.096;2024-01-15T01:55:48;0.10;99.90
8664;DHT22;4369;47.842;13.096;2024-01-15T01:58:16;0.10;99.90
8664;DHT22;4369;47.842;13.096;2024-01-15T02:00:44;0.10;99.90
8664;DHT22;4369;47.842;13.096;2024-01-15T02:03:13;0.10;99.90
8664;DHT22;4369;47.842;13.096;2024-01-15T02:05:40;0.10;99.90
8664;DHT22;4369;47.842;13.096;2024-01-15T02:08:07;0.20;99.90
8664;DHT22;4369;47.842;13.096;2024-01-15T02:10:34;0.30;99.90
8664;DHT22;4369;47.842;13.096;2024-01-15T02:13:02;0.30;99.90
8664;DHT22;4369;47.842;13.096;2024-01-15T02:15:29;0.40;99.90
8664;DHT22;4369;47.842;13.096;2024-01-15T02:17:58;0.50;99.90
8664;DHT22;4369;47.842;13.096;2024-01-15T02:20:26;0.60;99.90
8664;DHT22;4369;47.842;13.096;2024-01-15T02:22:53;0.70;99.90
8664;DHT22;4369;47.842;13.096;2024-01-15T02:25:21;0.70;99.90
8664;DHT22;4369;47.842;13.096;2024-01-15T02:27:48;0.70;99.90
8664;DHT22;4369;47.842;13.096;2024-01-15T02:30:15;0.80;99.90
8664;DHT22;4369;47.842;13.096;2024-01-15T02:32:43;0.80;99.90
8664;DHT22;4369;47.842;13.096;2024-01-15T02:35:10;0.80;99.90
8664;DHT22;4369;47.842;13.096;2024-01-15T02:37:37;0.80;99.90
8664;DHT22;4369;47.842;13.096;2024-01-15T02:40:05;0.80;99.90
8664;DHT22;4369;47.842;13.096;2024-01-15T02:42:33;0.80;99.90
8664;DHT22;4369;47.842;13.096;2024-01-15T02:45:00;0.70;99.90
8664;DHT22;4369;47.842;13.096;2024-01-15T02:47:26;0.70;99.90
8664;DHT22;4369;47.842;13.096;2024-01-15T02:49:53;0.70;99.90
8664;DHT22;4369;47.842;13.096;2024-01-15T02:52:20;0.70;99.90
8664;DHT22;4369;47.842;13.096;2024-01-15T02:54:47;0.60;99.90
8664;DHT22;4369;47.842;13.096;2024-01-15T02:57:14;0.70;99.90
8664;DHT22;4369;47.842;13.096;2024-01-15T02:59:42;0.60;99.90
8664;DHT22;4369;47.842;13.096;2024-01-15T03:02:09;0.50;99.90
8664;DHT22;4369;47.842;13.096;2024-01-15T03:04:36;0.50;99.90
8664;DHT22;4369;47.842;13.096;2024-01-15T03:07:03;0.40;99.90
8664;DHT22;4369;47.842;13.096;2024-01-15T03:09:30;0.40;99.90
8664;DHT22;4369;47.842;13.096;2024-01-15T03:11:57;0.30;99.90
8664;DHT22;4369;47.842;13.096;2024-01-15T03:14:24;0.20;99.90
8664;DHT22;4369;47.842;13.096;2024-01-15T03:16:53;0.20;99.90
8664;DHT22;4369;47.842;13.096;2024-01-15T03:19:20;0.10;99.90
8664;DHT22;4369;47.842;13.096;2024-01-15T03:21:47;0.00;99.90
8664;DHT22;4369;47.842;13.096;2024-01-15T03:24:14;0.00;99.90
8664;DHT22;4369;47.842;13.096;2024-01-15T03:26:41;0.00;99.90
8664;DHT22;4369;47.842;13.096;2024-01-15T03:29:08;0.00;99.90
8664;DHT22;4369;47.842;13.096;2024-01-15T03:31:35;0.00;99.90
8664;DHT22;4369;47.842;13.096;2024-01-15T03:34:03;0.00;99.90
8664;DHT22;4369;47.842;13.096;2024-01-15T03:36:29;0.00;99.90
8664;DHT22;4369;47.842;13.096;2024-01-15T03:38:56;0.00;99.90
8664;DHT22;4369;47.842;13.096;2024-01-15T03:41:23;0.00;99.90
8664;DHT22;4369;47.842;13.096;2024-01-15T03:43:50;0.00;99.90
8664;DHT22;4369;47.842;13.096;2024-01-15T03:46:17;0.00;99.90
8664;DHT22;4369;47.842;13.096;2024-01-15T03:48:44;-0.10;99.90
8664;DHT22;4369;47.842;13.096;2024-01-15T03:51:12;0.00;99.90
8664;DHT22;4369;47.842;13.096;2024-01-15T03:53:39;0.00;99.90
8664;DHT22;4369;47.842;13.096;2024-01-15T03:56:06;-0.10;99.90
8664;DHT22;4369;47.842;13.096;2024-01-15T03:58:33;0.00;99.90
8664;DHT22;4369;47.842;13.096;2024-01-15T04:01:00;0.00;99.90
8664;DHT22;4369;47.842;13.096;2024-01-15T04:03:27;0.00;99.90
8664;DHT22;4369;47.842;13.096;2024-01-15T04:05:54;0.00;99.90
8664;DHT22;4369;47.842;13.096;2024-01-15T04:08:22;0.00;99.90
8664;DHT22;4369;47.842;13.096;2024-01-15T04:10:49;0.00;99.90
8664;DHT22;4369;47.842;13.096;2024-01-15T04:13:16;0.00;99.90
8664;DHT22;4369;47.842;13.096;2024-01-15T04:15:43;0.00;99.90
8664;DHT22;4369;47.842;13.096;2024-01-15T04:18:10;0.00;99.90
8664;DHT22;4369;47.842;13.096;2024-01-15T04:20:37;0.00;99.90
8664;DHT22;4369;47.842;13.096;2024-01-15T04:23:04;-0.10;99.90
8664;DHT22;4369;47.842;13.096;2024-01-15T04:25:32;-0.10;99.90
8664;DHT22;4369;47.842;13.096;2024-01-15T04:27:59;0.00;99.90
8664;DHT22;4369;47.842;13.096;2024-01-15T04:30:26;-0.10;99.90
8664;DHT22;4369;47.842;13.096;2024-01-15T04:32:53;-0.10;99.90
8664;DHT22;4369;47.842;13.096;2024-01-15T04:35:20;-0.10;99.90
8664;DHT22;4369;47.842;13.096;2024-01-15T04:37:47;-0.10;99.90
8664;DHT22;4369;47.842;13.096;2024-01-15T04:40:14;0.00;99.90
8664;DHT22;4369;47.842;13.096;2024-01-15T04:42:42;0.00;99.90
8664;DHT22;4369;47.842;13.096;2024-01-15T04:45:11;0.00;99.90
8664;DHT22;4369;47.842;13.096;2024-01-15T04:47:38;0.00;99.90
8664;DHT22;4369;47.842;13.096;2024-01-15T04:50:06;0.00;99.90
8664;DHT22;4369;47.842;13.096;2024-01-15T04:52:33;0.00;99.90
8664;DHT22;4369;47.842;13.096;2024-01-15T04:55:00;0.00;99.90
8664;DHT22;4369;47.842;13.096;2024-01-15T04:57:27;0.10;99.90
8664;DHT22;4369;47.842;13.096;2024-01-15T04:59:55;0.10;99.90
8664;DHT22;4369;47.842;13.096;2024-01-15T05:02:22;0.10;99.90
8664;DHT22;4369;47.842;13.096;2024-01-15T05:04:49;0.10;93.50
8664;DHT22;4369;47.842;13.096;2024-01-15T05:07:16;0.10;91.50
8664;DHT22;4369;47.842;13.096;2024-01-15T05:09:43;0.10;74.00
8664;DHT22;4369;47.842;13.096;2024-01-15T05:12:10;0.10;56.10
8664;DHT22;4369;47.842;13.096;2024-01-15T05:14:37;0.10;55.50
8664;DHT22;4369;47.842;13.096;2024-01-15T05:17:05;0.20;53.80
8664;DHT22;4369;47.842;13.096;2024-01-15T05:19:32;0.20;44.00
8664;DHT22;4369;47.842;13.096;2024-01-15T05:21:59;0.20;39.30
8664;DHT22;4369;47.842;13.096;2024-01-15T05:24:26;0.20;33.60
8664;DHT22;4369;47.842;13.096;2024-01-15T05:26:53;0.20;28.40
8664;DHT22;4369;47.842;13.096;2024-01-15T05:29:20;0.20;27.10
8664;DHT22;4369;47.842;13.096;2024-01-15T05:31:47;0.20;19.10
8664;DHT22;4369;47.842;13.096;2024-01-15T05:34:15;0.20;14.40
8664;DHT22;4369;47.842;13.096;2024-01-15T05:36:42;0.20;11.90
8664;DHT22;4369;47.842;13.096;2024-01-15T05:39:09;0.20;1.00
8664;DHT22;4369;47.842;13.096;2024-01-15T05:41:36;0.20;1.00
8664;DHT22;4369;47.842;13.096;2024-01-15T05:44:03;0.30;1.00
8664;DHT22;4369;47.842;13.096;2024-01-15T05:46:30;0.20;1.00
8664;DHT22;4369;47.842;13.096;2024-01-15T05:48:57;0.20;1.00
8664;DHT22;4369;47.842;13.096;2024-01-15T05:51:25;0.30;1.00
8664;DHT22;4369;47.842;13.096;2024-01-15T05:53:52;0.30;1.00
8664;DHT22;4369;47.842;13.096;2024-01-15T05:56:19;0.40;1.00
8664;DHT22;4369;47.842;13.096;2024-01-15T05:58:46;0.50;1.00
8664;DHT22;4369;47.842;13.096;2024-01-15T06:01:13;0.50;1.00
8664;DHT22;4369;47.842;13.096;2024-01-15T06:03:40;0.40;1.00
8664;DHT22;4369;47.842;13.096;2024-01-15T06:06:08;0.50;1.00
8664;DHT22;4369;47.842;13.096;2024-01-15T06:08:37;0.50;1.00
8664;DHT22;4369;47.842;13.096;2024-01-15T06:11:04;0.40;1.00
8664;DHT22;4369;47.842;13.096;2024-01-15T06:13:31;0.50;1.00
8664;DHT22;4369;47.842;13.096;2024-01-15T06:15:58;0.50;1.00
8664;DHT22;4369;47.842;13.096;2024-01-15T06:18:25;0.50;1.00
8664;DHT22;4369;47.842;13.096;2024-01-15T06:20:53;0.50;1.00
8664;DHT22;4369;47.842;13.096;2024-01-15T06:23:19;0.50;1.00
8664;DHT22;4369;47.842;13.096;2024-01-15T06:25:48;0.40;1.00
8664;DHT22;4369;47.842;13.096;2024-01-15T06:28:15;0.40;1.00
8664;DHT22;4369;47.842;13.096;2024-01-15T06:30:42;0.40;1.00
8664;DHT22;4369;47.842;13.096;2024-01-15T06:33:09;0.40;1.00
8664;DHT22;4369;47.842;13.096;2024-01-15T06:35:36;0.50;1.00
8664;DHT22;4369;47.842;13.096;2024-01-15T06:38:03;0.40;1.00
8664;DHT22;4369;47.842;13.096;2024-01-15T06:40:30;0.50;1.00
8664;DHT22;4369;47.842;13.096;2024-01-15T06:42:59;0.50;1.00
8664;DHT22;4369;47.842;13.096;2024-01-15T06:45:25;0.50;1.00
8664;DHT22;4369;47.842;13.096;2024-01-15T06:47:52;0.50;1.00
8664;DHT22;4369;47.842;13.096;2024-01-15T06:50:22;0.50;1.00
8664;DHT22;4369;47.842;13.096;2024-01-15T06:52:50;0.60;1.00
8664;DHT22;4369;47.842;13.096;2024-01-15T06:55:17;0.60;1.00
8664;DHT22;4369;47.842;13.096;2024-01-15T06:57:44;0.60;1.00
8664;DHT22;4369;47.842;13.096;2024-01-15T07:00:13;0.60;1.00
8664;DHT22;4369;47.842;13.096;2024-01-15T07:02:40;0.70;1.00
8664;DHT22;4369;47.842;13.096;2024-01-15T07:05:08;0.70;1.00
8664;DHT22;4369;47.842;13.096;2024-01-15T07:07:35;0.70;1.00
8664;DHT22;4369;47.842;13.096;2024-01-15T07:10:02;0.70;1.00
8664;DHT22;4369;47.842;13.096;2024-01-15T07:12:30;0.70;1.00
8664;DHT22;4369;47.842;13.096;2024-01-15T07:14:57;0.80;1.00
8664;DHT22;4369;47.842;13.096;2024-01-15T07:17:25;0.70;1.00
8664;DHT22;4369;47.842;13.096;2024-01-15T07:19:52;0.70;1.00
8664;DHT22;4369;47.842;13.096;2024-01-15T07:22:19;0.80;1.00
8664;DHT22;4369;47.842;13.096;2024-01-15T07:24:46;0.80;1.00
8664;DHT22;4369;47.842;13.096;2024-01-15T07:27:13;0.80;1.00
8664;DHT22;4369;47.842;13.096;2024-01-15T07:29:40;0.80;1.00
8664;DHT22;4369;47.842;13.096;2024-01-15T07:32:08;0.70;1.00
8664;DHT22;4369;47.842;13.096;2024-01-15T07:34:37;0.80;1.00
8664;DHT22;4369;47.842;13.096;2024-01-15T07:37:04;0.70;1.00
8664;DHT22;4369;47.842;13.096;2024-01-15T07:39:32;0.70;1.00
8664;DHT22;4369;47.842;13.096;2024-01-15T07:42:00;0.70;99.90
8664;DHT22;4369;47.842;13.096;2024-01-15T07:44:27;0.70;1.00
8664;DHT22;4369;47.842;13.096;2024-01-15T07:46:54;0.70;1.00
8664;DHT22;4369;47.842;13.096;2024-01-15T07:49:21;0.70;99.90
8664;DHT22;4369;47.842;13.096;2024-01-15T07:51:50;0.70;99.90
8664;DHT22;4369;47.842;13.096;2024-01-15T07:54:17;0.60;99.90
8664;DHT22;4369;47.842;13.096;2024-01-15T07:56:54;0.60;1.00
8664;DHT22;4369;47.842;13.096;2024-01-15T07:59:21;0.60;1.00
8664;DHT22;4369;47.842;13.096;2024-01-15T08:01:48;0.60;1.00
8664;DHT22;4369;47.842;13.096;2024-01-15T08:04:15;0.60;1.00
8664;DHT22;4369;47.842;13.096;2024-01-15T08:06:42;0.60;1.00
8664;DHT22;4369;47.842;13.096;2024-01-15T08:09:12;0.60;1.00
8664;DHT22;4369;47.842;13.096;2024-01-15T08:11:39;0.50;1.00
8664;DHT22;4369;47.842;13.096;2024-01-15T08:14:08;0.50;1.00
8664;DHT22;4369;47.842;13.096;2024-01-15T08:16:35;0.50;1.00
8664;DHT22;4369;47.842;13.096;2024-01-15T08:19:02;0.60;1.00
8664;DHT22;4369;47.842;13.096;2024-01-15T08:21:29;0.50;1.00
8664;DHT22;4369;47.842;13.096;2024-01-15T08:23:57;0.50;1.00
8664;DHT22;4369;47.842;13.096;2024-01-15T08:26:25;0.60;1.00
8664;DHT22;4369;47.842;13.096;2024-01-15T08:28:52;0.60;1.00
8664;DHT22;4369;47.842;13.096;2024-01-15T08:31:19;0.50;1.00
8664;DHT22;4369;47.842;13.096;2024-01-15T08:33:46;0.40;1.00
8664;DHT22;4369;47.842;13.096;2024-01-15T08:36:14;0.40;1.00
8664;DHT22;4369;47.842;13.096;2024-01-15T08:38:41;0.50;1.00
8664;DHT22;4369;47.842;13.096;2024-01-15T08:41:08;0.40;1.00
8664;DHT22;4369;47.842;13.096;2024-01-15T08:43:36;0.40;1.00
8664;DHT22;4369;47.842;13.096;2024-01-15T08:46:03;0.40;1.00
8664;DHT22;4369;47.842;13.096;2024-01-15T08:48:30;0.40;99.90
8664;DHT22;4369;47.842;13.096;2024-01-15T08:50:57;0.30;99.90
8664;DHT22;4369;47.842;13.096;2024-01-15T08:53:25;0.30;1.00
8664;DHT22;4369;47.842;13.096;2024-01-15T08:55:52;0.30;99.90
8664;DHT22;4369;47.842;13.096;2024-01-15T08:58:20;0.30;99.90
8664;DHT22;4369;47.842;13.096;2024-01-15T09:00:48;0.30;20.80
8664;DHT22;4369;47.842;13.096;2024-01-15T09:03:16;0.40;5.70
8664;DHT22;4369;47.842;13.096;2024-01-15T09:05:44;0.40;1.00
8664;DHT22;4369;47.842;13.096;2024-01-15T09:08:11;0.40;1.00
8664;DHT22;4369;47.842;13.096;2024-01-15T09:10:38;0.30;99.90
8664;DHT22;4369;47.842;13.096;2024-01-15T09:13:06;0.30;1.00
8664;DHT22;4369;47.842;13.096;2024-01-15T09:15:33;0.20;99.90
8664;DHT22;4369;47.842;13.096;2024-01-15T09:18:02;0.20;1.00
8664;DHT22;4369;47.842;13.096;2024-01-15T09:20:30;0.20;1.00
8664;DHT22;4369;47.842;13.096;2024-01-15T09:22:57;0.20;1.00
8664;DHT22;4369;47.842;13.096;2024-01-15T09:25:25;0.20;1.00
8664;DHT22;4369;47.842;13.096;2024-01-15T09:27:52;0.30;1.00
8664;DHT22;4369;47.842;13.096;2024-01-15T09:30:19;0.30;42.00
8664;DHT22;4369;47.842;13.096;2024-01-15T09:32:46;0.30;65.30
8664;DHT22;4369;47.842;13.096;2024-01-15T09:35:15;0.40;88.50
8664;DHT22;4369;47.842;13.096;2024-01-15T09:37:42;0.40;95.70
8664;DHT22;4369;47.842;13.096;2024-01-15T09:40:13;0.40;99.90
8664;DHT22;4369;47.842;13.096;2024-01-15T09:42:41;0.40;99.90
8664;DHT22;4369;47.842;13.096;2024-01-15T09:45:09;0.30;99.90
8664;DHT22;4369;47.842;13.096;2024-01-15T09:47:37;0.30;99.90
8664;DHT22;4369;47.842;13.096;2024-01-15T09:50:05;0.30;99.90
8664;DHT22;4369;47.842;13.096;2024-01-15T09:52:34;0.30;99.90
8664;DHT22;4369;47.842;13.096;2024-01-15T09:55:02;0.40;99.90
8664;DHT22;4369;47.842;13.096;2024-01-15T09:57:31;0.50;99.90
8664;DHT22;4369;47.842;13.096;2024-01-15T09:59:59;0.50;99.90
8664;DHT22;4369;47.842;13.096;2024-01-15T10:02:29;0.40;99.90
8664;DHT22;4369;47.842;13.096;2024-01-15T10:04:57;0.40;99.90
8664;DHT22;4369;47.842;13.096;2024-01-15T10:07:25;0.40;99.90
8664;DHT22;4369;47.842;13.096;2024-01-15T10:09:55;0.50;99.90
8664;DHT22;4369;47.842;13.096;2024-01-15T10:12:22;0.50;99.90
8664;DHT22;4369;47.842;13.096;2024-01-15T10:14:50;0.40;99.90
8664;DHT22;4369;47.842;13.096;2024-01-15T10:17:17;0.50;99.90
8664;DHT22;4369;47.842;13.096;2024-01-15T10:19:45;0.50;99.90
8664;DHT22;4369;47.842;13.096;2024-01-15T10:22:14;0.50;99.90
8664;DHT22;4369;47.842;13.096;2024-01-15T10:24:42;0.60;99.90
8664;DHT22;4369;47.842;13.096;2024-01-15T10:27:11;0.50;99.90
8664;DHT22;4369;47.842;13.096;2024-01-15T10:29:38;0.60;99.90
8664;DHT22;4369;47.842;13.096;2024-01-15T10:32:06;0.60;99.90
8664;DHT22;4369;47.842;13.096;2024-01-15T10:34:37;0.50;99.90
8664;DHT22;4369;47.842;13.096;2024-01-15T10:37:07;0.60;99.90
8664;DHT22;4369;47.842;13.096;2024-01-15T10:39:34;0.70;99.90
8664;DHT22;4369;47.842;13.096;2024-01-15T10:42:02;0.70;99.90
8664;DHT22;4369;47.842;13.096;2024-01-15T10:44:30;0.60;99.90
8664;DHT22;4369;47.842;13.096;2024-01-15T10:46:57;0.70;99.90
8664;DHT22;4369;47.842;13.096;2024-01-15T10:49:25;0.80;99.90
8664;DHT22;4369;47.842;13.096;2024-01-15T10:51:53;0.70;99.90
8664;DHT22;4369;47.842;13.096;2024-01-15T10:54:21;0.80;99.90
8664;DHT22;4369;47.842;13.096;2024-01-15T10:56:50;0.80;99.90
8664;DHT22;4369;47.842;13.096;2024-01-15T10:59:19;0.80;99.90
8664;DHT22;4369;47.842;13.096;2024-01-15T11:01:49;0.90;99.90
8664;DHT22;4369;47.842;13.096;2024-01-15T11:04:16;0.90;99.90
8664;DHT22;4369;47.842;13.096;2024-01-15T11:06:45;0.80;99.90
8664;DHT22;4369;47.842;13.096;2024-01-15T11:09:12;0.60;99.90
8664;DHT22;4369;47.842;13.096;2024-01-15T11:11:41;0.60;99.90
8664;DHT22;4369;47.842;13.096;2024-01-15T11:14:10;0.30;99.90
8664;DHT22;4369;47.842;13.096;2024-01-15T11:16:56;0.30;99.90
8664;DHT22;4369;47.842;13.096;2024-01-15T11:19:25;0.30;99.90
8664;DHT22;4369;47.842;13.096;2024-01-15T11:21:52;0.30;99.90
8664;DHT22;4369;47.842;13.096;2024-01-15T11:24:36;0.20;99.90
8664;DHT22;4369;47.842;13.096;2024-01-15T11:27:04;0.40;99.90
8664;DHT22;4369;47.842;13.096;2024-01-15T11:29:33;0.30;99.90
8664;DHT22;4369;47.842;13.096;2024-01-15T11:32:03;0.30;99.90
8664;DHT22;4369;47.842;13.096;2024-01-15T11:34:54;0.30;99.90
8664;DHT22;4369;47.842;13.096;2024-01-15T11:37:24;0.30;99.90
8664;DHT22;4369;47.842;13.096;2024-01-15T11:39:52;0.20;99.90
8664;DHT22;4369;47.842;13.096;2024-01-15T11:42:20;0.20;99.90
8664;DHT22;4369;47.842;13.096;2024-01-15T11:44:48;0.30;99.90
8664;DHT22;4369;47.842;13.096;2024-01-15T11:50:10;0.40;99.90
8664;DHT22;4369;47.842;13.096;2024-01-15T11:52:38;0.50;99.90
8664;DHT22;4369;47.842;13.096;2024-01-15T11:55:11;0.50;99.90
8664;DHT22;4369;47.842;13.096;2024-01-15T11:57:45;0.30;99.90
8664;DHT22;4369;47.842;13.096;2024-01-15T12:00:13;0.30;99.90
8664;DHT22;4369;47.842;13.096;2024-01-15T12:02:43;0.30;99.90
8664;DHT22;4369;47.842;13.096;2024-01-15T12:05:11;0.30;99.90
8664;DHT22;4369;47.842;13.096;2024-01-15T12:07:39;0.20;99.90
8664;DHT22;4369;47.842;13.096;2024-01-15T12:10:09;0.10;99.90
8664;DHT22;4369;47.842;13.096;2024-01-15T12:12:51;0.10;99.90
8664;DHT22;4369;47.842;13.096;2024-01-15T12:15:21;0.00;99.90
8664;DHT22;4369;47.842;13.096;2024-01-15T12:17:49;0.00;99.90
8664;DHT22;4369;47.842;13.096;2024-01-15T12:20:17;0.10;99.90
8664;DHT22;4369;47.842;13.096;2024-01-15T12:22:44;0.20;99.90
8664;DHT22;4369;47.842;13.096;2024-01-15T12:25:11;0.20;99.90
8664;DHT22;4369;47.842;13.096;2024-01-15T12:27:38;0.20;99.90
8664;DHT22;4369;47.842;13.096;2024-01-15T12:30:06;0.20;99.90
8664;DHT22;4369;47.842;13.096;2024-01-15T12:32:34;0.20;99.90
8664;DHT22;4369;47.842;13.096;2024-01-15T12:35:05;0.30;99.90
8664;DHT22;4369;47.842;13.096;2024-01-15T12:37:32;0.20;99.90
8664;DHT22;4369;47.842;13.096;2024-01-15T12:39:59;0.30;99.10
8664;DHT22;4369;47.842;13.096;2024-01-15T12:42:27;0.30;99.90
8664;DHT22;4369;47.842;13.096;2024-01-15T12:44:56;0.30;99.90
8664;DHT22;4369;47.842;13.096;2024-01-15T12:47:23;0.30;99.30
8664;DHT22;4369;47.842;13.096;2024-01-15T12:49:51;0.50;99.90
8664;DHT22;4369;47.842;13.096;2024-01-15T12:52:21;0.60;99.90
8664;DHT22;4369;47.842;13.096;2024-01-15T12:54:48;0.60;99.90
8664;DHT22;4369;47.842;13.096;2024-01-15T12:57:16;0.70;99.90
8664;DHT22;4369;47.842;13.096;2024-01-15T12:59:43;0.60;93.90
8664;DHT22;4369;47.842;13.096;2024-01-15T13:02:11;0.50;93.90
8664;DHT22;4369;47.842;13.096;2024-01-15T13:04:38;0.60;99.90
8664;DHT22;4369;47.842;13.096;2024-01-15T13:07:05;0.60;99.90
8664;DHT22;4369;47.842;13.096;2024-01-15T13:09:34;0.70;99.90
8664;DHT22;4369;47.842;13.096;2024-01-15T13:12:02;0.70;99.90
8664;DHT22;4369;47.842;13.096;2024-01-15T13:14:29;0.60;99.90
8664;DHT22;4369;47.842;13.096;2024-01-15T13:16:56;0.70;99.90
8664;DHT22;4369;47.842;13.096;2024-01-15T13:19:24;0.70;98.80
8664;DHT22;4369;47.842;13.096;2024-01-15T13:21:51;0.80;96.30
8664;DHT22;4369;47.842;13.096;2024-01-15T13:24:19;0.90;92.00
8664;DHT22;4369;47.842;13.096;2024-01-15T13:26:47;1.00;93.00
8664;DHT22;4369;47.842;13.096;2024-01-15T13:29:14;1.10;92.00
8664;DHT22;4369;47.842;13.096;2024-01-15T13:31:41;1.10;91.50
8664;DHT22;4369;47.842;13.096;2024-01-15T13:34:10;1.20;88.50
8664;DHT22;4369;47.842;13.096;2024-01-15T13:36:37;1.30;85.50
8664;DHT22;4369;47.842;13.096;2024-01-15T13:39:04;1.30;80.70
8664;DHT22;4369;47.842;13.096;2024-01-15T13:41:35;1.40;82.90
8664;DHT22;4369;47.842;13.096;2024-01-15T13:44:03;1.40;80.10
8664;DHT22;4369;47.842;13.096;2024-01-15T13:46:30;1.50;76.80
8664;DHT22;4369;47.842;13.096;2024-01-15T13:48:57;1.50;72.00
8664;DHT22;4369;47.842;13.096;2024-01-15T13:51:25;1.60;68.00
8664;DHT22;4369;47.842;13.096;2024-01-15T13:53:52;1.60;63.60
8664;DHT22;4369;47.842;13.096;2024-01-15T13:56:19;1.60;55.50
8664;DHT22;4369;47.842;13.096;2024-01-15T13:58:46;1.70;48.20
8664;DHT22;4369;47.842;13.096;2024-01-15T14:01:16;1.60;28.30
8664;DHT22;4369;47.842;13.096;2024-01-15T14:03:44;1.60;23.00
8664;DHT22;4369;47.842;13.096;2024-01-15T14:06:11;1.60;12.30
8664;DHT22;4369;47.842;13.096;2024-01-15T14:08:38;1.40;1.00
8664;DHT22;4369;47.842;13.096;2024-01-15T14:11:05;1.30;1.00
8664;DHT22;4369;47.842;13.096;2024-01-15T14:13:32;1.30;1.00
8664;DHT22;4369;47.842;13.096;2024-01-15T14:15:59;1.40;1.00
8664;DHT22;4369;47.842;13.096;2024-01-15T14:18:28;1.50;1.00
8664;DHT22;4369;47.842;13.096;2024-01-15T14:20:55;1.30;1.00
8664;DHT22;4369;47.842;13.096;2024-01-15T14:23:22;1.20;1.80
8664;DHT22;4369;47.842;13.096;2024-01-15T14:25:49;1.20;17.00
8664;DHT22;4369;47.842;13.096;2024-01-15T14:28:16;1.20;22.10
8664;DHT22;4369;47.842;13.096;2024-01-15T14:30:43;1.30;27.20
8664;DHT22;4369;47.842;13.096;2024-01-15T14:33:10;1.30;31.20
8664;DHT22;4369;47.842;13.096;2024-01-15T14:35:38;1.30;34.40
8664;DHT22;4369;47.842;13.096;2024-01-15T14:38:05;1.30;38.80
8664;DHT22;4369;47.842;13.096;2024-01-15T14:40:34;1.30;42.40
8664;DHT22;4369;47.842;13.096;2024-01-15T14:43:01;1.30;45.10
8664;DHT22;4369;47.842;13.096;2024-01-15T14:45:29;1.30;52.80
8664;DHT22;4369;47.842;13.096;2024-01-15T14:47:56;1.40;57.60
8664;DHT22;4369;47.842;13.096;2024-01-15T14:50:24;1.30;58.80
8664;DHT22;4369;47.842;13.096;2024-01-15T14:52:52;1.30;64.80
8664;DHT22;4369;47.842;13.096;2024-01-15T14:55:19;1.40;70.90
8664;DHT22;4369;47.842;13.096;2024-01-15T14:57:48;1.30;64.50
8664;DHT22;4369;47.842;13.096;2024-01-15T15:00:16;1.30;64.50
8664;DHT22;4369;47.842;13.096;2024-01-15T15:02:43;1.30;78.00
8664;DHT22;4369;47.842;13.096;2024-01-15T15:05:10;1.20;83.10
8664;DHT22;4369;47.842;13.096;2024-01-15T15:07:39;1.10;94.70
8664;DHT22;4369;47.842;13.096;2024-01-15T15:10:08;1.10;99.90
8664;DHT22;4369;47.842;13.096;2024-01-15T15:12:36;1.00;99.90
8664;DHT22;4369;47.842;13.096;2024-01-15T15:15:04;0.90;99.90
8664;DHT22;4369;47.842;13.096;2024-01-15T15:17:32;0.90;99.90
8664;DHT22;4369;47.842;13.096;2024-01-15T15:20:00;0.80;99.90
8664;DHT22;4369;47.842;13.096;2024-01-15T15:22:28;0.90;99.90
8664;DHT22;4369;47.842;13.096;2024-01-15T15:24:55;1.00;99.90
8664;DHT22;4369;47.842;13.096;2024-01-15T15:27:23;1.10;99.90
8664;DHT22;4369;47.842;13.096;2024-01-15T15:29:52;1.00;99.90
8664;DHT22;4369;47.842;13.096;2024-01-15T15:32:19;1.00;99.90
8664;DHT22;4369;47.842;13.096;2024-01-15T15:34:46;1.00;99.90
8664;DHT22;4369;47.842;13.096;2024-01-15T15:37:13;1.00;99.90
8664;DHT22;4369;47.842;13.096;2024-01-15T15:39:42;1.10;99.90
8664;DHT22;4369;47.842;13.096;2024-01-15T15:42:09;1.00;99.70
8664;DHT22;4369;47.842;13.096;2024-01-15T15:44:38;1.00;99.90
8664;DHT22;4369;47.842;13.096;2024-01-15T15:47:11;1.00;97.10
8664;DHT22;4369;47.842;13.096;2024-01-15T15:49:38;1.00;93.50
8664;DHT22;4369;47.842;13.096;2024-01-15T15:52:05;1.00;97.50
8664;DHT22;4369;47.842;13.096;2024-01-15T15:54:32;1.00;99.90
8664;DHT22;4369;47.842;13.096;2024-01-15T15:56:59;1.00;99.90
8664;DHT22;4369;47.842;13.096;2024-01-15T15:59:26;0.90;99.90
8664;DHT22;4369;47.842;13.096;2024-01-15T16:01:54;0.90;99.90
8664;DHT22;4369;47.842;13.096;2024-01-15T16:04:21;0.90;99.90
8664;DHT22;4369;47.842;13.096;2024-01-15T16:06:48;1.00;99.90